Time;durP1;ratioP1;P1;durP2;ratioP2;P2;SDS_P1;SDS_P2;PMS_P1;PMS_P2;Temp;Humidity;BMP_temperature;BMP_pressure;BME280_temperature;BME280_humidity;BME280_pressure;Samples;Min_cycle;Max_cycle;Signal;HPM_P1;HPM_P2
2022/05/02 00:00:43;;;;;;;;;;;;;;;16.20;49.19;101074.38;4998886;27;98791;-66
2022/05/02 00:03:09;;;;;;;;;;;;;;;16.20;49.24;101079.00;4965796;27;98341;-67
2022/05/02 00:05:36;;;;;;;;;;;;;;;16.17;49.41;101074.94;4999515;27;115528;-66
2022/05/02 00:08:02;;;;;;;;;;;;;;;16.16;49.41;101080.69;4999778;27;121379;-67
2022/05/02 00:10:27;;;;;;;;;;;;;;;16.14;49.51;101074.72;4997829;27;121961;-67
2022/05/02 00:12:53;;;;;;;;;;;;;;;16.11;49.68;101075.28;4982217;27;125923;-67
2022/05/02 00:15:19;;;;;;;;;;;;;;;16.08;49.55;101067.72;4981741;27;117073;-67
2022/05/02 00:17:57;;;;;;;;;;;;;;;16.05;49.45;101069.09;4980721;27;119204;-66
2022/05/02 00:20:30;;;;;;;;;;;;;;;16.03;49.62;101074.00;4990186;27;98650;-66
2022/05/02 00:22:56;;;;;;;;;;;;;;;16.00;49.69;101069.19;5001433;27;98307;-67
2022/05/02 00:25:23;;;;;;;;;;;;;;;15.99;49.78;101072.16;5001345;27;97831;-67
2022/05/02 00:27:48;;;;;;;;;;;;;;;15.95;49.58;101067.31;5000924;27;117321;-67
2022/05/02 00:30:15;;;;;;;;;;;;;;;15.95;49.81;101071.94;5001823;27;98236;-66
2022/05/02 00:32:41;;;;;;;;;;;;;;;15.91;49.85;101071.69;5001685;27;97976;-66
2022/05/02 00:35:08;;;;;;;;;;;;;;;15.90;50.07;101074.72;4984867;27;99125;-66
2022/05/02 00:37:34;;;;;;;;;;;;;;;15.87;49.78;101075.28;4980881;27;98890;-67
2022/05/02 00:40:00;;;;;;;;;;;;;;;15.85;49.94;101075.56;4980723;28;119364;-67
2022/05/02 00:42:26;;;;;;;;;;;;;;;15.83;49.79;101066.88;4980967;28;97787;-66
2022/05/02 00:44:52;;;;;;;;;;;;;;;15.81;49.84;101066.38;4995596;27;116779;-66
2022/05/02 00:47:20;;;;;;;;;;;;;;;15.79;49.85;101068.56;5000730;27;128770;-66
2022/05/02 00:49:47;;;;;;;;;;;;;;;15.77;50.22;101059.09;5001236;27;99162;-66
2022/05/02 00:52:13;;;;;;;;;;;;;;;15.74;50.23;101065.91;5002016;27;98968;-67
2022/05/02 00:54:39;;;;;;;;;;;;;;;15.74;50.21;101065.09;4985811;27;100151;-66
2022/05/02 00:57:08;;;;;;;;;;;;;;;15.70;50.28;101062.94;5007665;27;107479;-66
2022/05/02 00:59:37;;;;;;;;;;;;;;;15.69;50.01;101063.25;5012463;27;98194;-66
2022/05/02 01:02:04;;;;;;;;;;;;;;;15.66;49.89;101070.06;4999271;27;98119;-66
2022/05/02 01:04:30;;;;;;;;;;;;;;;15.64;50.08;101058.66;4997722;27;98143;-66
2022/05/02 01:07:09;;;;;;;;;;;;;;;15.62;50.29;101058.09;4970373;28;127365;-67
2022/05/02 01:09:41;;;;;;;;;;;;;;;15.58;50.31;101067.94;4964620;28;100295;-66
2022/05/02 01:12:15;;;;;;;;;;;;;;;15.57;50.46;101060.06;4981126;28;98168;-66
2022/05/02 01:14:42;;;;;;;;;;;;;;;15.55;50.50;101067.69;4990173;27;116645;-68
2022/05/02 01:17:08;;;;;;;;;;;;;;;15.53;50.46;101069.91;4992921;27;98902;-66
2022/05/02 01:19:34;;;;;;;;;;;;;;;15.51;50.42;101066.63;4981703;27;128574;-68
2022/05/02 01:22:00;;;;;;;;;;;;;;;15.48;50.37;101062.56;4996954;27;126750;-67
2022/05/02 01:24:39;;;;;;;;;;;;;;;15.46;50.82;101065.59;4998374;27;97826;-67
2022/05/02 01:27:06;;;;;;;;;;;;;;;15.44;50.33;101065.09;4991425;27;98596;-68
2022/05/02 01:29:33;;;;;;;;;;;;;;;15.43;50.38;101066.16;4980000;27;98107;-67
2022/05/02 01:31:59;;;;;;;;;;;;;;;15.42;50.63;101061.03;4981405;28;102294;-67
2022/05/02 01:34:25;;;;;;;;;;;;;;;15.39;50.37;101058.88;4980972;27;97981;-66
2022/05/02 01:36:51;;;;;;;;;;;;;;;15.38;50.65;101059.97;4980019;28;99250;-66
2022/05/02 01:39:17;;;;;;;;;;;;;;;15.35;50.69;101055.09;4979776;28;116224;-67
2022/05/02 01:41:46;;;;;;;;;;;;;;;15.34;50.66;101058.91;4980314;27;109278;-67
2022/05/02 01:44:12;;;;;;;;;;;;;;;15.31;50.33;101056.75;4987890;27;97800;-66
2022/05/02 01:46:38;;;;;;;;;;;;;;;15.29;50.49;101051.63;5000592;27;99287;-67
2022/05/02 01:49:04;;;;;;;;;;;;;;;15.27;50.55;101053.81;4999861;27;99156;-66
2022/05/02 01:51:30;;;;;;;;;;;;;;;15.23;50.70;101050.84;4999856;27;116263;-66
2022/05/02 01:53:56;;;;;;;;;;;;;;;15.23;50.47;101050.03;4996154;27;115606;-66
2022/05/02 01:56:22;;;;;;;;;;;;;;;15.21;50.82;101054.97;4997400;27;98542;-66
2022/05/02 01:58:48;;;;;;;;;;;;;;;15.18;50.58;101056.31;5017557;27;127321;-66
2022/05/02 02:01:14;;;;;;;;;;;;;;;15.16;51.04;101061.22;4998745;27;126363;-66
2022/05/02 02:03:40;;;;;;;;;;;;;;;15.15;50.95;101058.78;4996456;27;98728;-66
2022/05/02 02:06:06;;;;;;;;;;;;;;;15.12;50.98;101057.44;4979847;27;98445;-67
2022/05/02 02:08:33;;;;;;;;;;;;;;;15.11;50.95;101057.75;4979778;27;98798;-66
2022/05/02 02:11:00;;;;;;;;;;;;;;;15.08;50.96;101056.38;4979901;27;98871;-67
2022/05/02 02:13:26;;;;;;;;;;;;;;;15.06;51.13;101055.06;4980566;28;97896;-66
2022/05/02 02:15:52;;;;;;;;;;;;;;;15.03;50.97;101051.00;4998021;27;121378;-65
2022/05/02 02:18:18;;;;;;;;;;;;;;;15.01;50.80;101045.03;4999545;27;98424;-66
2022/05/02 02:20:45;;;;;;;;;;;;;;;14.99;50.89;101047.25;4987244;27;127228;-66
2022/05/02 02:23:12;;;;;;;;;;;;;;;14.97;50.82;101047.53;4979594;27;115634;-66
2022/05/02 02:25:38;;;;;;;;;;;;;;;14.95;50.85;101044.28;4996259;27;115405;-66
2022/05/02 02:28:04;;;;;;;;;;;;;;;14.92;51.08;101042.13;4999811;27;99703;-67
2022/05/02 02:30:30;;;;;;;;;;;;;;;14.91;50.73;101056.78;5000046;27;118266;-67
2022/05/02 02:32:56;;;;;;;;;;;;;;;14.88;51.08;101042.97;5000825;27;97815;-66
2022/05/02 02:35:23;;;;;;;;;;;;;;;14.86;51.12;101040.56;5002142;27;98535;-67
2022/05/02 02:37:49;;;;;;;;;;;;;;;14.84;51.33;101039.19;5003054;27;99246;-67
2022/05/02 02:40:15;;;;;;;;;;;;;;;14.82;51.31;101033.25;5004252;27;98096;-66
2022/05/02 02:42:41;;;;;;;;;;;;;;;14.80;50.97;101035.44;5001428;27;108967;-68
2022/05/02 02:45:07;;;;;;;;;;;;;;;14.78;51.17;101034.91;5001180;27;127960;-68
2022/05/02 02:47:33;;;;;;;;;;;;;;;14.77;51.02;101033.28;4998716;27;118034;-68
2022/05/02 02:49:59;;;;;;;;;;;;;;;14.74;51.24;101021.09;5002582;27;126358;-68
2022/05/02 02:52:25;;;;;;;;;;;;;;;14.72;51.24;101034.94;5003325;27;98255;-66
2022/05/02 02:54:51;;;;;;;;;;;;;;;14.70;51.42;101033.59;5002924;27;127203;-68
2022/05/02 02:57:17;;;;;;;;;;;;;;;14.69;51.20;101031.97;5009691;27;127234;-68
2022/05/02 02:59:43;;;;;;;;;;;;;;;14.67;51.16;101034.97;4991368;27;121468;-68
2022/05/02 03:02:09;;;;;;;;;;;;;;;14.65;51.30;101026.28;5002377;27;116701;-66
2022/05/02 03:07:20;;;;;;;;;;;;;;;14.61;51.31;101022.50;4996604;27;98112;-66
2022/05/02 03:09:46;;;;;;;;;;;;;;;14.60;51.26;101029.03;4997114;27;128300;-66
2022/05/02 03:12:12;;;;;;;;;;;;;;;14.59;51.64;101023.91;4990972;27;97844;-68
2022/05/02 03:14:38;;;;;;;;;;;;;;;14.57;51.63;101028.78;4996541;27;125395;-67
2022/05/02 03:17:04;;;;;;;;;;;;;;;14.56;51.35;101019.03;4982035;27;128481;-67
2022/05/02 03:19:30;;;;;;;;;;;;;;;14.53;51.55;101017.69;4999837;27;124735;-68
2022/05/02 03:21:56;;;;;;;;;;;;;;;14.53;51.41;101011.44;4983065;27;115121;-66
2022/05/02 03:24:22;;;;;;;;;;;;;;;14.51;51.74;101013.66;4947273;28;98162;-67
2022/05/02 03:26:48;;;;;;;;;;;;;;;14.49;51.51;101020.13;4981342;28;128126;-66
2022/05/02 03:29:14;;;;;;;;;;;;;;;14.49;51.53;101016.63;4998598;27;128464;-69
2022/05/02 03:31:40;;;;;;;;;;;;;;;14.47;51.63;101013.34;5001601;27;97837;-66
2022/05/02 03:34:06;;;;;;;;;;;;;;;14.46;51.54;101017.97;4999756;27;116082;-67
2022/05/02 03:36:32;;;;;;;;;;;;;;;14.45;51.49;101024.47;5001409;27;128883;-66
2022/05/02 03:38:57;;;;;;;;;;;;;;;14.45;51.79;101020.94;4983610;27;127801;-67
2022/05/02 03:41:23;;;;;;;;;;;;;;;14.45;51.74;101023.66;4963410;28;117420;-66
2022/05/02 03:43:49;;;;;;;;;;;;;;;14.43;51.48;101018.53;4980674;27;128860;-66
2022/05/02 03:46:16;;;;;;;;;;;;;;;14.44;51.89;101019.34;4986564;27;98584;-67
2022/05/02 03:48:44;;;;;;;;;;;;;;;14.45;51.51;101023.66;4987654;27;100024;-66
2022/05/02 03:51:13;;;;;;;;;;;;;;;14.44;51.55;101031.00;4981540;28;98275;-68
2022/05/02 03:53:38;;;;;;;;;;;;;;;14.43;51.92;101021.25;4979368;28;124085;-67
2022/05/02 03:56:04;;;;;;;;;;;;;;;14.46;51.51;101019.84;4993620;27;125947;-68
2022/05/02 03:58:30;;;;;;;;;;;;;;;14.46;51.81;101017.97;5010426;27;108717;-68
2022/05/02 04:00:56;;;;;;;;;;;;;;;14.47;51.37;101016.88;5002168;27;117537;-68
2022/05/02 04:03:22;;;;;;;;;;;;;;;14.49;51.47;101016.63;4989829;27;99317;-66
2022/05/02 04:05:48;;;;;;;;;;;;;;;14.50;51.60;101015.53;4982220;28;99223;-67
2022/05/02 04:08:14;;;;;;;;;;;;;;;14.52;51.57;101017.97;4988389;27;127845;-67
2022/05/02 04:10:40;;;;;;;;;;;;;;;14.53;51.42;101017.69;5000890;27;115808;-67
2022/05/02 04:13:06;;;;;;;;;;;;;;;14.56;51.73;101024.47;4980741;28;127824;-67
2022/05/02 04:15:34;;;;;;;;;;;;;;;14.59;51.39;101026.63;4979233;28;119282;-68
2022/05/02 04:17:59;;;;;;;;;;;;;;;14.60;51.34;101023.59;4986468;27;98447;-68
2022/05/02 04:20:25;;;;;;;;;;;;;;;14.62;51.63;101026.88;4992916;27;117794;-66
2022/05/02 04:22:51;;;;;;;;;;;;;;;14.66;51.58;101027.13;4980626;28;126982;-68
2022/05/02 04:25:17;;;;;;;;;;;;;;;14.69;51.33;101018.41;4981205;28;109014;-66
2022/05/02 04:27:43;;;;;;;;;;;;;;;14.73;51.30;101022.16;4983183;27;127843;-68
2022/05/02 04:30:10;;;;;;;;;;;;;;;14.76;51.65;101018.09;5000593;27;97926;-68
2022/05/02 04:32:36;;;;;;;;;;;;;;;14.79;51.57;101022.97;5001643;27;99203;-66
2022/05/02 04:35:03;;;;;;;;;;;;;;;14.81;51.30;101018.03;4996172;27;125074;-67
2022/05/02 04:37:29;;;;;;;;;;;;;;;14.84;51.64;101023.72;4980682;27;98345;-68
2022/05/02 04:39:55;;;;;;;;;;;;;;;14.88;51.41;101029.41;5001818;27;117578;-66
2022/05/02 04:42:21;;;;;;;;;;;;;;;14.90;51.70;101028.03;5000776;27;98566;-66
2022/05/02 04:44:47;;;;;;;;;;;;;;;14.93;51.52;101032.91;4999065;27;105423;-67
2022/05/02 04:47:13;;;;;;;;;;;;;;;14.95;51.68;101030.69;4990012;27;98777;-67
2022/05/02 04:49:39;;;;;;;;;;;;;;;14.98;51.71;101037.47;4981983;27;113148;-68
2022/05/02 04:52:05;;;;;;;;;;;;;;;15.03;51.57;101037.44;4976779;27;126149;-67
2022/05/02 04:54:31;;;;;;;;;;;;;;;15.04;51.44;101039.03;4976429;27;127876;-67
2022/05/02 04:56:56;;;;;;;;;;;;;;;15.05;51.76;101032.53;4974826;27;125129;-67
2022/05/02 04:59:22;;;;;;;;;;;;;;;15.11;51.96;101044.16;4971550;27;117723;-68
2022/05/02 05:01:48;;;;;;;;;;;;;;;15.14;51.60;101041.69;4979365;28;128402;-67
2022/05/02 05:04:14;;;;;;;;;;;;;;;15.19;51.71;101044.34;4980020;28;127094;-67
2022/05/02 05:06:40;;;;;;;;;;;;;;;15.24;51.63;101038.06;4980226;28;118075;-67
2022/05/02 05:09:06;;;;;;;;;;;;;;;15.31;51.98;101037.75;4994227;27;99467;-67
2022/05/02 05:11:55;;;;;;;;;;;;;;;15.40;51.68;101041.47;4993080;27;127241;-68
2022/05/02 05:17:42;;;;;;;;;;;;;;;15.58;51.26;101035.31;4981751;27;97685;-68
2022/05/02 05:20:17;;;;;;;;;;;;;;;15.67;51.60;101041.78;4986705;27;116699;-68
2022/05/02 05:22:54;;;;;;;;;;;;;;;15.77;51.43;101032.72;4986433;27;98658;-68
2022/05/02 05:25:20;;;;;;;;;;;;;;;15.91;50.97;101030.09;4983044;27;98721;-69
2022/05/02 05:27:57;;;;;;;;;;;;;;;16.02;51.23;101031.63;4989347;27;98272;-67
2022/05/02 05:30:23;;;;;;;;;;;;;;;16.17;50.80;101027.91;4982193;28;97619;-68
2022/05/02 05:33:02;;;;;;;;;;;;;;;16.28;51.11;101026.69;4989613;27;128797;-69
2022/05/02 05:35:51;;;;;;;;;;;;;;;16.47;50.98;101028.63;4982390;27;98471;-68
2022/05/02 05:38:31;;;;;;;;;;;;;;;16.67;50.40;101026.41;4990775;27;98285;-68
2022/05/02 05:41:11;;;;;;;;;;;;;;;16.87;50.24;101014.44;4991046;27;97792;-68
2022/05/02 05:43:57;;;;;;;;;;;;;;;16.86;50.16;101012.84;4980236;27;99119;-67
2022/05/02 05:46:34;;;;;;;;;;;;;;;17.06;50.35;101017.13;4993140;27;98863;-69
2022/05/02 05:49:11;;;;;;;;;;;;;;;17.11;49.98;101025.22;4978432;27;125813;-67
2022/05/02 05:51:38;;;;;;;;;;;;;;;17.31;49.96;101020.53;4962498;28;115423;-68
2022/05/02 05:54:18;;;;;;;;;;;;;;;17.51;49.67;101022.09;4978706;27;103448;-68
2022/05/02 05:57:06;;;;;;;;;;;;;;;17.77;49.34;101023.28;4994962;27;110308;-68
2022/05/02 05:59:56;;;;;;;;;;;;;;;17.96;49.25;101019.63;5002158;27;98183;-67
2022/05/02 06:02:41;;;;;;;;;;;;;;;18.15;48.98;101025.78;4978217;28;115791;-67
2022/05/02 06:05:08;;;;;;;;;;;;;;;18.46;48.49;101017.75;4980515;27;98146;-68
2022/05/02 06:07:34;;;;;;;;;;;;;;;18.75;48.24;101022.06;4979280;27;98941;-69
2022/05/02 06:10:01;;;;;;;;;;;;;;;18.88;47.95;101022.00;4964909;28;127487;-68
2022/05/02 06:12:28;;;;;;;;;;;;;;;19.09;47.87;101029.69;4983034;28;116054;-68
2022/05/02 06:20:23;;;;;;;;;;;;;;;20.02;46.82;101015.22;4994061;27;98922;-69
2022/05/02 06:22:49;;;;;;;;;;;;;;;20.40;46.57;101026.44;5010169;27;117325;-66
2022/05/02 06:25:15;;;;;;;;;;;;;;;20.84;45.95;101019.88;4993216;27;127802;-65
2022/05/02 06:27:42;;;;;;;;;;;;;;;21.21;45.80;101024.97;5001395;27;106645;-67
2022/05/02 06:30:08;;;;;;;;;;;;;;;21.73;45.41;101019.38;5003031;27;109163;-66
2022/05/02 06:32:38;;;;;;;;;;;;;;;22.25;45.19;101019.13;5003102;27;117151;-65
2022/05/02 06:35:04;;;;;;;;;;;;;;;22.91;44.65;101021.22;4990910;27;98313;-67
2022/05/02 06:38:12;;;;;;;;;;;;;;;23.56;44.41;101029.78;4988215;27;102818;-68
2022/05/02 06:40:47;;;;;;;;;;;;;;;24.05;44.25;101030.66;4980223;28;98141;-66
2022/05/02 06:43:25;;;;;;;;;;;;;;;24.61;44.01;101027.28;4965153;28;116188;-69
2022/05/02 06:46:14;;;;;;;;;;;;;;;25.03;43.63;101027.66;4995009;27;98390;-68
2022/05/02 06:48:42;;;;;;;;;;;;;;;25.63;43.38;101027.72;5001447;27;98231;-65
2022/05/02 06:51:23;;;;;;;;;;;;;;;26.00;43.36;101024.69;5001352;27;98101;-68
2022/05/02 06:54:12;;;;;;;;;;;;;;;26.37;43.31;101023.19;4986384;27;97844;-65
2022/05/02 06:56:54;;;;;;;;;;;;;;;26.89;42.92;101021.13;5005099;27;98335;-67
2022/05/02 06:59:40;;;;;;;;;;;;;;;27.31;42.55;101021.16;5017277;27;98625;-67
2022/05/02 07:02:12;;;;;;;;;;;;;;;27.71;42.35;101021.84;5002931;27;97842;-65
2022/05/02 07:04:49;;;;;;;;;;;;;;;28.07;42.27;101018.47;5003446;27;98147;-65
2022/05/02 07:07:30;;;;;;;;;;;;;;;28.47;41.99;101028.16;4998286;27;98710;-65
2022/05/02 07:10:26;;;;;;;;;;;;;;;28.79;41.90;101030.56;5003756;27;98473;-67
2022/05/02 07:13:17;;;;;;;;;;;;;;;29.21;41.72;101027.47;4998576;27;98307;-65
2022/05/02 07:15:58;;;;;;;;;;;;;;;29.61;41.50;101017.56;5003287;27;97817;-65
2022/05/02 07:18:49;;;;;;;;;;;;;;;29.88;41.11;101025.72;4998561;27;123839;-67
2022/05/02 07:21:35;;;;;;;;;;;;;;;30.14;40.62;101019.13;4984301;27;107316;-65
2022/05/02 07:24:20;;;;;;;;;;;;;;;30.37;40.58;101005.78;4983391;27;97978;-68
2022/05/02 07:26:58;;;;;;;;;;;;;;;30.63;40.42;101013.06;4965290;28;97954;-67
2022/05/02 07:29:24;;;;;;;;;;;;;;;30.92;40.36;101011.19;4980969;27;124329;-66
2022/05/02 07:31:50;;;;;;;;;;;;;;;31.18;39.71;101012.84;4981102;28;98997;-66
2022/05/02 07:34:16;;;;;;;;;;;;;;;31.42;39.59;101004.94;4981797;27;101148;-65
2022/05/02 07:36:43;;;;;;;;;;;;;;;31.61;39.31;101001.78;4990146;27;116776;-67
2022/05/02 07:39:13;;;;;;;;;;;;;;;31.89;38.95;101005.75;4980352;27;99178;-66
2022/05/02 07:41:39;;;;;;;;;;;;;;;32.21;38.61;101008.47;4976423;27;119396;-65
2022/05/02 07:44:10;;;;;;;;;;;;;;;32.60;38.30;101002.00;4975711;27;110345;-67
2022/05/02 07:46:38;;;;;;;;;;;;;;;33.01;37.84;101002.19;4979086;27;97964;-67
2022/05/02 07:49:05;;;;;;;;;;;;;;;33.50;37.50;101000.28;4982124;27;98465;-66
2022/05/02 07:51:31;;;;;;;;;;;;;;;34.00;36.94;101001.84;4976738;27;98918;-67
2022/05/02 07:53:57;;;;;;;;;;;;;;;34.53;36.49;100997.66;4978260;27;102487;-67
2022/05/02 07:56:25;;;;;;;;;;;;;;;35.14;35.78;101001.22;4983979;27;114675;-67
2022/05/02 07:58:52;;;;;;;;;;;;;;;35.70;35.25;100995.13;4984689;27;98942;-66
2022/05/02 08:01:19;;;;;;;;;;;;;;;36.14;34.83;100999.50;4990415;27;99573;-66
2022/05/02 08:03:45;;;;;;;;;;;;;;;36.66;34.21;101000.88;4986120;27;98035;-68
2022/05/02 08:06:46;;;;;;;;;;;;;;;37.10;34.23;100993.88;4976021;27;117838;-67
2022/05/02 08:09:27;;;;;;;;;;;;;;;37.68;33.93;100998.09;4981314;27;126722;-65
2022/05/02 08:12:18;;;;;;;;;;;;;;;38.40;33.20;100991.31;4981838;27;115684;-67
2022/05/02 08:15:02;;;;;;;;;;;;;;;39.43;31.90;100988.09;4978433;27;98011;-66
2022/05/02 08:17:55;;;;;;;;;;;;;;;40.46;31.30;100989.25;4981578;27;98274;-68
2022/05/02 08:20:32;;;;;;;;;;;;;;;41.56;29.99;100988.91;4985594;27;98803;-67
2022/05/02 08:30:05;;;;;;;;;;;;;;;43.98;28.35;100980.59;4976008;27;98292;-68
2022/05/02 08:32:57;;;;;;;;;;;;;;;44.30;26.27;100976.84;4978248;27;98722;-67
2022/05/02 08:35:23;;;;;;;;;;;;;;;43.74;25.84;100972.91;4976385;27;102631;-68
2022/05/02 08:38:08;;;;;;;;;;;;;;;43.53;24.75;100954.97;4978354;27;98052;-67
2022/05/02 08:41:02;;;;;;;;;;;;;;;43.92;24.13;100965.53;4978046;27;117418;-67
2022/05/02 08:44:22;;;;;;;;;;;;;;;44.42;23.04;100957.94;4975080;27;117454;-66
2022/05/02 08:47:21;;;;;;;;;;;;;;;44.59;22.47;100952.50;4967146;28;99232;-66
2022/05/02 08:50:17;;;;;;;;;;;;;;;44.91;21.85;100947.06;4973911;27;126103;-68
2022/05/02 08:53:05;;;;;;;;;;;;;;;45.20;21.63;100937.63;4976515;27;97980;-66
2022/05/02 08:55:58;;;;;;;;;;;;;;;45.69;20.78;100935.91;4977348;27;97809;-66
2022/05/02 08:58:52;;;;;;;;;;;;;;;45.83;20.61;100940.75;4983624;27;98338;-67
2022/05/02 09:01:51;;;;;;;;;;;;;;;45.93;20.57;100947.03;4976184;27;98639;-67
2022/05/02 09:04:52;;;;;;;;;;;;;;;45.98;20.23;100941.41;4975023;27;112991;-66
2022/05/02 09:07:56;;;;;;;;;;;;;;;45.92;19.99;100934.09;4975592;27;98746;-68
2022/05/02 09:10:57;;;;;;;;;;;;;;;45.95;19.53;100939.56;4977722;27;98314;-68
2022/05/02 09:13:55;;;;;;;;;;;;;;;44.89;20.06;100924.06;4974474;27;126689;-69
2022/05/02 09:16:33;;;;;;;;;;;;;;;43.97;20.58;100925.13;4973883;27;117427;-66
2022/05/02 09:19:07;;;;;;;;;;;;;;;43.49;20.73;100922.41;4981878;27;98742;-67
2022/05/02 09:22:04;;;;;;;;;;;;;;;43.43;20.64;100915.78;4983736;27;98395;-67
2022/05/02 09:24:54;;;;;;;;;;;;;;;43.78;20.19;100919.63;4976169;27;97999;-66
2022/05/02 09:27:35;;;;;;;;;;;;;;;44.37;19.63;100921.69;4975509;27;98271;-67
2022/05/02 09:30:14;;;;;;;;;;;;;;;44.97;18.96;100914.59;4977421;27;98532;-66
2022/05/02 09:33:02;;;;;;;;;;;;;;;45.73;18.46;100916.56;4978266;27;98933;-69
2022/05/02 09:35:33;;;;;;;;;;;;;;;46.12;18.47;100907.63;4977153;27;98067;-68
2022/05/02 09:38:03;;;;;;;;;;;;;;;46.45;17.71;100907.88;4977373;27;98077;-68
2022/05/02 09:40:36;;;;;;;;;;;;;;;46.83;17.62;100899.34;4983492;27;98112;-67
2022/05/02 09:49:37;;;;;;;;;;;;;;;47.88;16.97;100894.53;4977060;27;98449;-67
2022/05/02 09:52:14;;;;;;;;;;;;;;;48.09;16.51;100884.41;4974166;27;98940;-67
2022/05/02 09:58:03;;;;;;;;;;;;;;;48.16;16.84;100874.53;4987115;27;97973;-67
2022/05/02 10:01:10;;;;;;;;;;;;;;;48.09;16.91;100870.13;4982969;27;97755;-69
2022/05/02 10:04:01;;;;;;;;;;;;;;;48.34;16.29;100861.78;4976758;27;98749;-67
2022/05/02 10:06:31;;;;;;;;;;;;;;;48.38;16.32;100862.28;4977317;27;98512;-69
2022/05/02 10:09:33;;;;;;;;;;;;;;;48.27;16.36;100856.63;4978893;27;98114;-69
2022/05/02 10:12:20;;;;;;;;;;;;;;;48.18;16.54;100854.78;4975745;27;98264;-68
2022/05/02 10:14:50;;;;;;;;;;;;;;;48.16;16.63;100855.31;4976209;27;99004;-67
2022/05/02 10:17:32;;;;;;;;;;;;;;;48.11;16.12;100849.63;4976936;27;98514;-67
2022/05/02 10:20:15;;;;;;;;;;;;;;;48.00;16.12;100843.91;4981998;27;103645;-65
2022/05/02 10:23:03;;;;;;;;;;;;;;;48.03;16.33;100842.84;4976501;27;98199;-64
2022/05/02 10:25:44;;;;;;;;;;;;;;;47.86;15.98;100846.50;4976314;27;99360;-65
2022/05/02 10:28:23;;;;;;;;;;;;;;;47.80;15.89;100837.16;4976719;27;98821;-66
2022/05/02 10:30:50;;;;;;;;;;;;;;;47.69;16.30;100820.03;4976239;27;98612;-66
2022/05/02 10:33:31;;;;;;;;;;;;;;;47.50;16.17;100824.66;4977692;27;98006;-66
2022/05/02 10:35:58;;;;;;;;;;;;;;;47.21;16.28;100816.03;4974132;27;98979;-66
2022/05/02 10:38:28;;;;;;;;;;;;;;;47.01;16.56;100818.31;4981336;27;118656;-65
2022/05/02 10:40:57;;;;;;;;;;;;;;;46.83;16.39;100816.69;4975922;27;98561;-67
2022/05/02 10:43:26;;;;;;;;;;;;;;;46.67;16.53;100812.47;4975820;27;111378;-65
2022/05/02 10:45:52;;;;;;;;;;;;;;;46.52;16.58;100806.94;4984235;27;98520;-68
2022/05/02 10:48:18;;;;;;;;;;;;;;;46.30;16.72;100806.81;4977726;27;102547;-66
2022/05/02 10:51:13;;;;;;;;;;;;;;;46.11;16.67;100804.34;4976731;27;97907;-66
2022/05/02 10:54:17;;;;;;;;;;;;;;;46.07;16.70;100798.09;4976526;27;98252;-66
2022/05/02 10:56:44;;;;;;;;;;;;;;;45.92;16.62;100803.94;4982008;27;99228;-66
2022/05/02 10:59:12;;;;;;;;;;;;;;;45.71;16.70;100793.91;4987690;27;98371;-66
2022/05/02 11:02:03;;;;;;;;;;;;;;;45.47;16.86;100789.31;4979657;27;97801;-65
2022/05/02 11:05:00;;;;;;;;;;;;;;;45.28;16.90;100782.41;4979419;27;98062;-65
2022/05/02 11:07:49;;;;;;;;;;;;;;;44.95;16.85;100794.94;4978720;27;97883;-65
2022/05/02 11:10:17;;;;;;;;;;;;;;;44.55;17.02;100781.50;4977819;27;98944;-66
2022/05/02 11:12:51;;;;;;;;;;;;;;;44.24;17.12;100776.41;4981360;27;126260;-65
2022/05/02 11:15:34;;;;;;;;;;;;;;;43.83;17.42;100776.28;4979502;27;98183;-66
2022/05/02 11:21:48;;;;;;;;;;;;;;;42.89;17.93;100757.03;4982503;27;99084;-66
2022/05/02 11:24:33;;;;;;;;;;;;;;;42.62;17.91;100760.81;4977518;27;98405;-66
2022/05/02 11:27:26;;;;;;;;;;;;;;;42.51;18.10;100763.41;4979976;27;98256;-66
2022/05/02 11:30:10;;;;;;;;;;;;;;;42.39;17.92;100754.69;4976520;27;126079;-66
2022/05/02 11:32:53;;;;;;;;;;;;;;;42.32;17.55;100757.06;4977819;27;98432;-67
2022/05/02 11:35:47;;;;;;;;;;;;;;;42.17;17.99;100757.78;4977702;27;99028;-66
2022/05/02 11:38:29;;;;;;;;;;;;;;;42.00;17.77;100756.59;4977460;27;99364;-67
2022/05/02 11:41:17;;;;;;;;;;;;;;;41.81;18.10;100749.41;4980511;27;98643;-66
2022/05/02 11:43:44;;;;;;;;;;;;;;;41.52;18.48;100745.13;4982641;27;98635;-67
2022/05/02 11:46:24;;;;;;;;;;;;;;;41.31;18.45;100740.44;4978608;27;98194;-66
2022/05/02 11:49:22;;;;;;;;;;;;;;;41.10;18.31;100742.16;4978128;27;97964;-65
2022/05/02 11:51:50;;;;;;;;;;;;;;;40.89;18.50;100735.41;4977693;27;128925;-66
2022/05/02 11:54:28;;;;;;;;;;;;;;;40.68;18.59;100734.31;4980131;27;98812;-67
2022/05/02 11:57:08;;;;;;;;;;;;;;;40.53;18.91;100736.16;4991519;27;104047;-65
2022/05/02 11:59:51;;;;;;;;;;;;;;;40.37;18.83;100731.56;4978458;27;98658;-66
2022/05/02 12:02:38;;;;;;;;;;;;;;;40.21;18.70;100727.78;4976619;27;99291;-67
2022/05/02 12:05:23;;;;;;;;;;;;;;;40.08;18.66;100720.63;4977655;27;99903;-65
2022/05/02 12:07:54;;;;;;;;;;;;;;;39.94;18.83;100710.72;4984971;27;98047;-66
2022/05/02 12:10:35;;;;;;;;;;;;;;;39.80;18.81;100717.72;4979292;27;97838;-65
2022/05/02 12:13:01;;;;;;;;;;;;;;;39.63;19.17;100714.34;4978024;27;98867;-65
2022/05/02 12:15:27;;;;;;;;;;;;;;;39.51;19.20;100716.00;4986258;27;113776;-65
2022/05/02 12:18:07;;;;;;;;;;;;;;;39.39;18.68;100710.44;4975676;27;111290;-65
2022/05/02 12:20:42;;;;;;;;;;;;;;;39.23;19.00;100700.97;4984699;27;98378;-65
2022/05/02 12:23:16;;;;;;;;;;;;;;;39.13;18.92;100706.97;4978089;27;99118;-65
2022/05/02 12:25:54;;;;;;;;;;;;;;;39.01;19.42;100698.09;4980561;27;99001;-65
2022/05/02 12:28:41;;;;;;;;;;;;;;;38.91;18.95;100702.13;4975360;27;98252;-66
2022/05/02 12:31:07;;;;;;;;;;;;;;;38.82;19.17;100701.25;4977572;27;97904;-67
2022/05/02 12:33:39;;;;;;;;;;;;;;;38.69;19.69;100696.41;4977701;27;99288;-67
2022/05/02 12:36:11;;;;;;;;;;;;;;;38.51;19.30;100688.59;4984471;27;98910;-65
2022/05/02 12:38:39;;;;;;;;;;;;;;;38.37;19.65;100686.28;4984548;27;120407;-65
2022/05/02 12:41:05;;;;;;;;;;;;;;;38.28;19.51;100681.31;4977456;27;98227;-65
2022/05/02 12:43:41;;;;;;;;;;;;;;;38.17;19.68;100678.09;4978376;27;125509;-65
2022/05/02 12:46:10;;;;;;;;;;;;;;;38.07;19.55;100674.38;4978349;27;119162;-66
2022/05/02 12:48:38;;;;;;;;;;;;;;;37.99;19.62;100672.25;4977646;27;98111;-65
2022/05/02 12:51:05;;;;;;;;;;;;;;;37.93;19.78;100674.84;4978348;27;97906;-65
2022/05/02 12:56:16;;;;;;;;;;;;;;;37.87;19.66;100676.63;4988413;27;98155;-65
2022/05/02 13:01:41;;;;;;;;;;;;;;;37.67;20.03;100659.19;4975050;27;97719;-65
2022/05/02 13:04:06;;;;;;;;;;;;;;;37.53;20.47;100666.03;4975647;27;98380;-66
2022/05/02 13:06:32;;;;;;;;;;;;;;;37.39;20.44;100664.41;4978468;27;127427;-66
2022/05/02 13:09:08;;;;;;;;;;;;;;;37.24;20.37;100657.66;4973906;27;124536;-66
2022/05/02 13:11:38;;;;;;;;;;;;;;;36.60;20.76;100655.41;4978128;27;97798;-65
2022/05/02 13:14:04;;;;;;;;;;;;;;;36.54;20.83;100648.72;4976752;27;98882;-65
2022/05/02 13:16:40;;;;;;;;;;;;;;;36.47;20.75;100648.94;4975636;27;98774;-65
2022/05/02 13:19:07;;;;;;;;;;;;;;;36.36;20.66;100645.59;4979234;27;98479;-64
2022/05/02 13:21:33;;;;;;;;;;;;;;;36.19;20.90;100639.19;4978224;27;98077;-65
2022/05/02 13:24:11;;;;;;;;;;;;;;;36.08;20.88;100641.50;4977044;27;97913;-65
2022/05/02 13:27:14;;;;;;;;;;;;;;;35.96;21.09;100633.75;4979209;27;98417;-65
2022/05/02 13:30:03;;;;;;;;;;;;;;;35.79;21.36;100633.75;4980710;27;98555;-65
2022/05/02 13:33:03;;;;;;;;;;;;;;;35.61;21.04;100627.78;4977934;27;97856;-64
2022/05/02 13:35:29;;;;;;;;;;;;;;;35.43;21.34;100630.94;4971782;27;98828;-64
2022/05/02 13:38:09;;;;;;;;;;;;;;;35.28;21.24;100627.66;4974341;27;98748;-66
2022/05/02 13:40:51;;;;;;;;;;;;;;;35.11;21.02;100624.03;4976331;27;98863;-65
2022/05/02 13:43:36;;;;;;;;;;;;;;;34.92;21.54;100619.97;4978022;27;113172;-66